Terminal Aerodrome Forecast
Issued by NWS

Home | Current Version | Previous Version | Text Only | Print | Product List | Glossary On
Versions: 1 2 3 4 5 6 7 8 9 10 11 12
000
FTUS45 KREV 190500
TAFMMH
TAF
KMMH 190520Z 1906/2006 28006KT P6SM BKN100
     FM190800 30006KT P6SM SCT100
     FM191700 11010KT P6SM SCT100
     FM192100 12011KT P6SM SCT070 BKN100
     FM200300 VRB04KT P6SM SCT100
      AMD NOT SKED 1906/1914=

USA.gov is the U.S. government's official web portal to all federal, state and local government web resources and services.